sensor_id;sensor_type;location;lat;lon;timestamp;P1;durP1;ratioP1;P2;durP2;ratioP2
16699;SDS011;8466;52.286;21.124;2024-03-23T00:56:19;24.70;;;18.63;;
16699;SDS011;8466;52.286;21.124;2024-03-23T00:58:45;25.03;;;19.43;;
16699;SDS011;8466;52.286;21.124;2024-03-23T01:01:14;27.53;;;19.90;;
16699;SDS011;8466;52.286;21.124;2024-03-23T01:03:40;23.97;;;19.43;;
16699;SDS011;8466;52.286;21.124;2024-03-23T01:06:08;25.57;;;19.50;;
16699;SDS011;8466;52.286;21.124;2024-03-23T01:08:34;25.23;;;19.50;;
16699;SDS011;8466;52.286;21.124;2024-03-23T01:11:04;23.00;;;18.43;;
16699;SDS011;8466;52.286;21.124;2024-03-23T01:13:33;26.80;;;19.40;;
16699;SDS011;8466;52.286;21.124;2024-03-23T01:16:01;22.63;;;18.80;;
16699;SDS011;8466;52.286;21.124;2024-03-23T01:18:28;23.80;;;19.17;;
16699;SDS011;8466;52.286;21.124;2024-03-23T01:20:56;27.47;;;20.07;;
16699;SDS011;8466;52.286;21.124;2024-03-23T01:23:22;27.00;;;20.33;;
16699;SDS011;8466;52.286;21.124;2024-03-23T01:25:53;26.43;;;20.57;;
16699;SDS011;8466;52.286;21.124;2024-03-23T01:28:22;27.07;;;19.93;;
16699;SDS011;8466;52.286;21.124;2024-03-23T01:30:50;23.93;;;19.10;;
16699;SDS011;8466;52.286;21.124;2024-03-23T01:33:16;27.17;;;20.57;;
16699;SDS011;8466;52.286;21.124;2024-03-23T01:35:44;25.30;;;20.17;;
16699;SDS011;8466;52.286;21.124;2024-03-23T01:38:10;26.67;;;21.20;;
16699;SDS011;8466;52.286;21.124;2024-03-23T01:40:38;28.13;;;22.03;;
16699;SDS011;8466;52.286;21.124;2024-03-23T01:43:05;24.70;;;20.17;;
16699;SDS011;8466;52.286;21.124;2024-03-23T01:45:35;24.63;;;20.13;;
16699;SDS011;8466;52.286;21.124;2024-03-23T01:48:03;29.30;;;21.87;;
16699;SDS011;8466;52.286;21.124;2024-03-23T01:50:31;28.47;;;22.57;;
16699;SDS011;8466;52.286;21.124;2024-03-23T01:52:59;28.20;;;22.07;;
16699;SDS011;8466;52.286;21.124;2024-03-23T01:55:31;27.07;;;21.37;;
16699;SDS011;8466;52.286;21.124;2024-03-23T01:57:58;27.50;;;22.13;;
16699;SDS011;8466;52.286;21.124;2024-03-23T02:00:25;29.50;;;22.63;;
16699;SDS011;8466;52.286;21.124;2024-03-23T02:02:55;29.93;;;21.83;;
16699;SDS011;8466;52.286;21.124;2024-03-23T02:05:24;26.03;;;21.93;;
16699;SDS011;8466;52.286;21.124;2024-03-23T02:07:56;29.70;;;22.93;;
16699;SDS011;8466;52.286;21.124;2024-03-23T02:10:24;30.83;;;23.00;;
16699;SDS011;8466;52.286;21.124;2024-03-23T02:12:51;28.03;;;23.23;;
16699;SDS011;8466;52.286;21.124;2024-03-23T02:15:18;28.30;;;22.53;;
16699;SDS011;8466;52.286;21.124;2024-03-23T02:17:45;31.53;;;22.93;;
16699;SDS011;8466;52.286;21.124;2024-03-23T02:20:14;29.83;;;23.00;;
16699;SDS011;8466;52.286;21.124;2024-03-23T02:22:41;30.27;;;23.07;;
16699;SDS011;8466;52.286;21.124;2024-03-23T02:25:10;29.40;;;23.33;;
16699;SDS011;8466;52.286;21.124;2024-03-23T02:27:36;28.90;;;23.50;;
16699;SDS011;8466;52.286;21.124;2024-03-23T02:30:06;31.93;;;24.07;;
16699;SDS011;8466;52.286;21.124;2024-03-23T02:32:33;29.07;;;22.70;;
16699;SDS011;8466;52.286;21.124;2024-03-23T02:35:01;29.53;;;22.40;;
16699;SDS011;8466;52.286;21.124;2024-03-23T02:37:27;28.83;;;23.13;;
16699;SDS011;8466;52.286;21.124;2024-03-23T02:39:55;29.50;;;23.57;;
16699;SDS011;8466;52.286;21.124;2024-03-23T02:42:23;28.33;;;23.03;;
16699;SDS011;8466;52.286;21.124;2024-03-23T02:44:51;30.83;;;23.97;;
16699;SDS011;8466;52.286;21.124;2024-03-23T02:47:17;30.50;;;23.63;;
16699;SDS011;8466;52.286;21.124;2024-03-23T02:49:45;28.20;;;22.83;;
16699;SDS011;8466;52.286;21.124;2024-03-23T02:52:11;28.10;;;23.23;;
16699;SDS011;8466;52.286;21.124;2024-03-23T02:54:39;25.07;;;21.93;;
16699;SDS011;8466;52.286;21.124;2024-03-23T02:57:07;31.93;;;24.40;;
16699;SDS011;8466;52.286;21.124;2024-03-23T02:59:36;31.67;;;25.27;;
16699;SDS011;8466;52.286;21.124;2024-03-23T03:02:03;32.83;;;24.80;;
16699;SDS011;8466;52.286;21.124;2024-03-23T03:04:32;31.10;;;24.47;;
16699;SDS011;8466;52.286;21.124;2024-03-23T03:06:58;31.97;;;24.07;;
16699;SDS011;8466;52.286;21.124;2024-03-23T03:09:26;28.63;;;23.17;;
16699;SDS011;8466;52.286;21.124;2024-03-23T03:11:53;32.10;;;24.57;;
16699;SDS011;8466;52.286;21.124;2024-03-23T03:14:21;30.13;;;24.17;;
16699;SDS011;8466;52.286;21.124;2024-03-23T03:16:49;32.50;;;24.30;;
16699;SDS011;8466;52.286;21.124;2024-03-23T03:19:17;29.87;;;23.57;;
16699;SDS011;8466;52.286;21.124;2024-03-23T03:21:43;29.57;;;24.00;;
16699;SDS011;8466;52.286;21.124;2024-03-23T03:24:13;30.13;;;24.63;;
16699;SDS011;8466;52.286;21.124;2024-03-23T03:26:40;31.20;;;25.17;;
16699;SDS011;8466;52.286;21.124;2024-03-23T03:29:07;32.83;;;25.53;;
16699;SDS011;8466;52.286;21.124;2024-03-23T03:31:35;30.67;;;24.43;;
16699;SDS011;8466;52.286;21.124;2024-03-23T03:34:03;32.53;;;25.90;;
16699;SDS011;8466;52.286;21.124;2024-03-23T03:36:31;29.73;;;24.17;;
16699;SDS011;8466;52.286;21.124;2024-03-23T03:38:58;29.53;;;23.67;;
16699;SDS011;8466;52.286;21.124;2024-03-23T03:41:26;30.60;;;24.57;;
16699;SDS011;8466;52.286;21.124;2024-03-23T03:43:53;30.23;;;23.97;;
16699;SDS011;8466;52.286;21.124;2024-03-23T03:46:20;29.33;;;22.40;;
16699;SDS011;8466;52.286;21.124;2024-03-23T03:48:47;29.20;;;22.70;;
16699;SDS011;8466;52.286;21.124;2024-03-23T03:51:16;28.37;;;22.60;;
16699;SDS011;8466;52.286;21.124;2024-03-23T03:53:43;30.27;;;22.33;;
16699;SDS011;8466;52.286;21.124;2024-03-23T03:56:10;28.03;;;22.87;;
16699;SDS011;8466;52.286;21.124;2024-03-23T03:58:37;27.73;;;21.43;;
16699;SDS011;8466;52.286;21.124;2024-03-23T04:01:05;28.43;;;21.73;;
16699;SDS011;8466;52.286;21.124;2024-03-23T04:03:32;26.57;;;21.57;;
16699;SDS011;8466;52.286;21.124;2024-03-23T04:05:59;27.97;;;23.00;;
16699;SDS011;8466;52.286;21.124;2024-03-23T04:08:27;26.93;;;20.93;;
16699;SDS011;8466;52.286;21.124;2024-03-23T04:10:55;28.07;;;22.23;;
16699;SDS011;8466;52.286;21.124;2024-03-23T04:13:22;27.73;;;21.30;;
16699;SDS011;8466;52.286;21.124;2024-03-23T04:15:53;26.37;;;20.80;;
16699;SDS011;8466;52.286;21.124;2024-03-23T04:18:20;24.87;;;20.87;;
16699;SDS011;8466;52.286;21.124;2024-03-23T04:20:48;26.13;;;20.80;;
16699;SDS011;8466;52.286;21.124;2024-03-23T04:23:15;26.43;;;21.00;;
16699;SDS011;8466;52.286;21.124;2024-03-23T04:25:44;26.63;;;20.27;;
16699;SDS011;8466;52.286;21.124;2024-03-23T04:28:10;27.07;;;21.00;;
16699;SDS011;8466;52.286;21.124;2024-03-23T04:30:38;24.03;;;20.47;;
16699;SDS011;8466;52.286;21.124;2024-03-23T04:33:04;25.03;;;20.60;;
16699;SDS011;8466;52.286;21.124;2024-03-23T04:35:32;23.03;;;19.97;;
16699;SDS011;8466;52.286;21.124;2024-03-23T04:37:59;23.87;;;20.30;;
16699;SDS011;8466;52.286;21.124;2024-03-23T04:40:27;26.60;;;20.63;;
16699;SDS011;8466;52.286;21.124;2024-03-23T04:42:56;24.07;;;20.37;;
16699;SDS011;8466;52.286;21.124;2024-03-23T04:45:24;25.87;;;20.63;;
16699;SDS011;8466;52.286;21.124;2024-03-23T04:47:51;24.40;;;19.47;;
16699;SDS011;8466;52.286;21.124;2024-03-23T04:50:19;24.30;;;19.83;;
16699;SDS011;8466;52.286;21.124;2024-03-23T04:52:46;23.67;;;19.87;;
16699;SDS011;8466;52.286;21.124;2024-03-23T04:55:14;25.93;;;20.10;;
16699;SDS011;8466;52.286;21.124;2024-03-23T04:57:42;24.47;;;21.73;;
16699;SDS011;8466;52.286;21.124;2024-03-23T05:00:12;25.87;;;22.20;;
16699;SDS011;8466;52.286;21.124;2024-03-23T05:02:43;26.10;;;21.50;;
16699;SDS011;8466;52.286;21.124;2024-03-23T05:05:11;26.97;;;21.23;;
16699;SDS011;8466;52.286;21.124;2024-03-23T05:07:38;28.10;;;21.67;;
16699;SDS011;8466;52.286;21.124;2024-03-23T05:10:09;26.47;;;21.20;;
16699;SDS011;8466;52.286;21.124;2024-03-23T05:12:36;23.73;;;20.43;;
16699;SDS011;8466;52.286;21.124;2024-03-23T05:15:04;23.50;;;20.60;;
16699;SDS011;8466;52.286;21.124;2024-03-23T05:17:33;25.50;;;20.80;;
16699;SDS011;8466;52.286;21.124;2024-03-23T05:20:01;25.50;;;21.10;;
16699;SDS011;8466;52.286;21.124;2024-03-23T05:22:29;26.10;;;21.03;;
16699;SDS011;8466;52.286;21.124;2024-03-23T05:24:56;25.47;;;20.90;;
16699;SDS011;8466;52.286;21.124;2024-03-23T05:27:23;26.13;;;21.00;;
16699;SDS011;8466;52.286;21.124;2024-03-23T05:29:50;26.23;;;20.77;;
16699;SDS011;8466;52.286;21.124;2024-03-23T05:32:17;23.97;;;20.03;;
16699;SDS011;8466;52.286;21.124;2024-03-23T05:34:46;23.20;;;19.67;;
16699;SDS011;8466;52.286;21.124;2024-03-23T05:37:13;24.87;;;21.17;;
16699;SDS011;8466;52.286;21.124;2024-03-23T05:39:40;23.77;;;20.47;;
16699;SDS011;8466;52.286;21.124;2024-03-23T05:42:07;21.67;;;19.37;;
16699;SDS011;8466;52.286;21.124;2024-03-23T05:44:35;24.20;;;20.33;;
16699;SDS011;8466;52.286;21.124;2024-03-23T05:47:01;23.93;;;20.60;;
16699;SDS011;8466;52.286;21.124;2024-03-23T05:49:29;23.93;;;21.07;;
16699;SDS011;8466;52.286;21.124;2024-03-23T05:51:57;25.40;;;22.10;;
16699;SDS011;8466;52.286;21.124;2024-03-23T05:54:28;29.80;;;23.63;;
16699;SDS011;8466;52.286;21.124;2024-03-23T05:56:55;28.50;;;24.60;;
16699;SDS011;8466;52.286;21.124;2024-03-23T05:59:22;32.37;;;28.07;;
16699;SDS011;8466;52.286;21.124;2024-03-23T06:01:49;31.20;;;25.87;;
16699;SDS011;8466;52.286;21.124;2024-03-23T06:04:17;35.07;;;28.43;;
16699;SDS011;8466;52.286;21.124;2024-03-23T06:06:44;33.67;;;27.80;;
16699;SDS011;8466;52.286;21.124;2024-03-23T06:09:13;32.97;;;26.73;;
16699;SDS011;8466;52.286;21.124;2024-03-23T06:11:40;29.67;;;24.87;;
16699;SDS011;8466;52.286;21.124;2024-03-23T06:14:07;29.37;;;24.40;;
16699;SDS011;8466;52.286;21.124;2024-03-23T06:16:35;28.63;;;24.47;;
16699;SDS011;8466;52.286;21.124;2024-03-23T06:19:02;29.87;;;26.50;;
16699;SDS011;8466;52.286;21.124;2024-03-23T06:21:32;29.10;;;23.73;;
16699;SDS011;8466;52.286;21.124;2024-03-23T06:23:58;31.90;;;25.30;;
16699;SDS011;8466;52.286;21.124;2024-03-23T06:26:28;29.73;;;25.00;;
16699;SDS011;8466;52.286;21.124;2024-03-23T06:28:54;31.70;;;25.57;;
16699;SDS011;8466;52.286;21.124;2024-03-23T06:31:22;30.43;;;24.97;;
16699;SDS011;8466;52.286;21.124;2024-03-23T06:33:49;32.30;;;25.23;;
16699;SDS011;8466;52.286;21.124;2024-03-23T06:36:16;31.10;;;25.47;;
16699;SDS011;8466;52.286;21.124;2024-03-23T06:38:45;30.40;;;23.73;;
16699;SDS011;8466;52.286;21.124;2024-03-23T06:41:13;29.90;;;25.03;;
16699;SDS011;8466;52.286;21.124;2024-03-23T06:43:41;30.00;;;24.80;;
16699;SDS011;8466;52.286;21.124;2024-03-23T06:46:08;28.90;;;24.47;;
16699;SDS011;8466;52.286;21.124;2024-03-23T06:48:35;31.63;;;25.93;;
16699;SDS011;8466;52.286;21.124;2024-03-23T06:51:03;35.10;;;26.37;;
16699;SDS011;8466;52.286;21.124;2024-03-23T06:53:29;31.63;;;26.07;;
16699;SDS011;8466;52.286;21.124;2024-03-23T06:55:57;29.80;;;24.57;;
16699;SDS011;8466;52.286;21.124;2024-03-23T06:58:24;30.67;;;24.87;;
16699;SDS011;8466;52.286;21.124;2024-03-23T07:00:53;32.80;;;25.50;;
16699;SDS011;8466;52.286;21.124;2024-03-23T07:03:20;33.23;;;26.17;;
16699;SDS011;8466;52.286;21.124;2024-03-23T07:05:49;32.83;;;25.90;;
16699;SDS011;8466;52.286;21.124;2024-03-23T07:08:16;36.53;;;27.87;;
16699;SDS011;8466;52.286;21.124;2024-03-23T07:10:47;30.10;;;24.30;;
16699;SDS011;8466;52.286;21.124;2024-03-23T07:13:13;33.30;;;26.53;;
16699;SDS011;8466;52.286;21.124;2024-03-23T07:15:42;32.73;;;25.93;;
16699;SDS011;8466;52.286;21.124;2024-03-23T07:18:10;31.37;;;26.10;;
16699;SDS011;8466;52.286;21.124;2024-03-23T07:20:38;33.23;;;25.63;;
16699;SDS011;8466;52.286;21.124;2024-03-23T07:23:06;31.07;;;25.67;;
16699;SDS011;8466;52.286;21.124;2024-03-23T07:25:34;33.13;;;25.83;;
16699;SDS011;8466;52.286;21.124;2024-03-23T07:28:02;32.40;;;26.10;;
16699;SDS011;8466;52.286;21.124;2024-03-23T07:30:30;33.63;;;25.33;;
16699;SDS011;8466;52.286;21.124;2024-03-23T07:32:57;29.70;;;24.13;;
16699;SDS011;8466;52.286;21.124;2024-03-23T07:35:27;31.73;;;23.27;;
16699;SDS011;8466;52.286;21.124;2024-03-23T07:37:58;27.93;;;23.93;;
16699;SDS011;8466;52.286;21.124;2024-03-23T07:40:31;30.70;;;23.37;;
16699;SDS011;8466;52.286;21.124;2024-03-23T07:42:58;29.17;;;22.77;;
16699;SDS011;8466;52.286;21.124;2024-03-23T07:45:26;29.80;;;23.97;;
16699;SDS011;8466;52.286;21.124;2024-03-23T07:47:57;30.27;;;24.00;;
16699;SDS011;8466;52.286;21.124;2024-03-23T07:50:27;28.27;;;21.80;;
16699;SDS011;8466;52.286;21.124;2024-03-23T07:52:54;30.13;;;22.07;;
16699;SDS011;8466;52.286;21.124;2024-03-23T07:55:22;27.57;;;21.70;;
16699;SDS011;8466;52.286;21.124;2024-03-23T07:57:50;26.33;;;21.13;;
16699;SDS011;8466;52.286;21.124;2024-03-23T08:00:19;26.33;;;21.40;;
16699;SDS011;8466;52.286;21.124;2024-03-23T08:02:47;22.77;;;19.50;;
16699;SDS011;8466;52.286;21.124;2024-03-23T08:05:16;22.30;;;18.87;;
16699;SDS011;8466;52.286;21.124;2024-03-23T08:07:46;24.87;;;20.20;;
16699;SDS011;8466;52.286;21.124;2024-03-23T08:10:16;22.83;;;20.50;;
16699;SDS011;8466;52.286;21.124;2024-03-23T08:12:45;24.27;;;20.03;;
16699;SDS011;8466;52.286;21.124;2024-03-23T08:15:12;22.33;;;19.73;;
16699;SDS011;8466;52.286;21.124;2024-03-23T08:17:40;25.33;;;19.77;;
16699;SDS011;8466;52.286;21.124;2024-03-23T08:20:07;23.43;;;19.33;;
16699;SDS011;8466;52.286;21.124;2024-03-23T08:22:35;21.67;;;18.70;;
16699;SDS011;8466;52.286;21.124;2024-03-23T08:25:03;19.67;;;17.43;;
16699;SDS011;8466;52.286;21.124;2024-03-23T08:27:32;21.00;;;18.60;;
16699;SDS011;8466;52.286;21.124;2024-03-23T08:29:58;21.03;;;17.50;;
16699;SDS011;8466;52.286;21.124;2024-03-23T08:32:26;21.47;;;18.60;;
16699;SDS011;8466;52.286;21.124;2024-03-23T08:34:53;22.43;;;18.33;;
16699;SDS011;8466;52.286;21.124;2024-03-23T08:37:21;21.27;;;18.57;;
16699;SDS011;8466;52.286;21.124;2024-03-23T08:39:50;24.33;;;19.10;;
16699;SDS011;8466;52.286;21.124;2024-03-23T08:42:19;23.00;;;18.77;;
16699;SDS011;8466;52.286;21.124;2024-03-23T08:44:46;23.20;;;19.50;;
16699;SDS011;8466;52.286;21.124;2024-03-23T08:47:15;23.33;;;19.97;;
16699;SDS011;8466;52.286;21.124;2024-03-23T08:49:41;25.20;;;20.80;;
16699;SDS011;8466;52.286;21.124;2024-03-23T08:52:09;24.07;;;20.00;;
16699;SDS011;8466;52.286;21.124;2024-03-23T08:54:36;23.47;;;20.43;;
16699;SDS011;8466;52.286;21.124;2024-03-23T08:57:04;23.27;;;18.57;;
16699;SDS011;8466;52.286;21.124;2024-03-23T08:59:32;22.00;;;18.40;;
16699;SDS011;8466;52.286;21.124;2024-03-23T09:02:00;21.80;;;18.83;;
16699;SDS011;8466;52.286;21.124;2024-03-23T09:04:26;22.57;;;18.83;;
16699;SDS011;8466;52.286;21.124;2024-03-23T09:06:54;22.17;;;18.20;;
16699;SDS011;8466;52.286;21.124;2024-03-23T09:09:21;19.13;;;17.13;;
16699;SDS011;8466;52.286;21.124;2024-03-23T09:11:48;19.33;;;16.57;;
16699;SDS011;8466;52.286;21.124;2024-03-23T09:14:15;19.03;;;16.73;;
16699;SDS011;8466;52.286;21.124;2024-03-23T09:16:44;17.10;;;15.30;;
16699;SDS011;8466;52.286;21.124;2024-03-23T09:19:11;19.33;;;16.03;;
16699;SDS011;8466;52.286;21.124;2024-03-23T09:21:39;18.63;;;14.77;;
16699;SDS011;8466;52.286;21.124;2024-03-23T09:24:06;16.27;;;14.43;;
16699;SDS011;8466;52.286;21.124;2024-03-23T09:26:33;16.13;;;14.43;;
16699;SDS011;8466;52.286;21.124;2024-03-23T09:29:00;16.20;;;14.57;;
16699;SDS011;8466;52.286;21.124;2024-03-23T09:31:28;16.97;;;14.50;;
16699;SDS011;8466;52.286;21.124;2024-03-23T09:33:58;16.47;;;13.77;;
16699;SDS011;8466;52.286;21.124;2024-03-23T09:36:26;14.83;;;13.33;;
16699;SDS011;8466;52.286;21.124;2024-03-23T09:38:53;16.27;;;14.57;;
16699;SDS011;8466;52.286;21.124;2024-03-23T09:41:21;18.37;;;13.73;;
16699;SDS011;8466;52.286;21.124;2024-03-23T09:43:47;14.93;;;13.43;;
16699;SDS011;8466;52.286;21.124;2024-03-23T09:46:15;16.43;;;14.30;;
16699;SDS011;8466;52.286;21.124;2024-03-23T09:48:42;14.73;;;13.20;;
16699;SDS011;8466;52.286;21.124;2024-03-23T09:51:14;15.90;;;13.93;;
16699;SDS011;8466;52.286;21.124;2024-03-23T09:53:40;15.10;;;13.50;;
16699;SDS011;8466;52.286;21.124;2024-03-23T09:56:08;13.98;;;12.32;;
16699;SDS011;8466;52.286;21.124;2024-03-23T09:58:35;17.27;;;13.00;;
16699;SDS011;8466;52.286;21.124;2024-03-23T10:01:03;13.85;;;12.45;;
16699;SDS011;8466;52.286;21.124;2024-03-23T10:03:30;16.17;;;13.63;;
16699;SDS011;8466;52.286;21.124;2024-03-23T10:06:01;13.23;;;11.93;;
16699;SDS011;8466;52.286;21.124;2024-03-23T10:08:30;13.15;;;11.82;;
16699;SDS011;8466;52.286;21.124;2024-03-23T10:10:58;13.10;;;11.80;;
16699;SDS011;8466;52.286;21.124;2024-03-23T10:13:40;13.63;;;12.23;;
16699;SDS011;8466;52.286;21.124;2024-03-23T10:16:20;13.32;;;12.02;;
16699;SDS011;8466;52.286;21.124;2024-03-23T10:18:48;12.73;;;11.37;;
16699;SDS011;8466;52.286;21.124;2024-03-23T10:21:16;13.73;;;12.30;;
16699;SDS011;8466;52.286;21.124;2024-03-23T10:23:44;12.13;;;10.93;;
16699;SDS011;8466;52.286;21.124;2024-03-23T10:26:13;12.75;;;11.45;;
16699;SDS011;8466;52.286;21.124;2024-03-23T10:28:56;13.40;;;12.00;;
16699;SDS011;8466;52.286;21.124;2024-03-23T10:31:26;13.20;;;11.57;;
16699;SDS011;8466;52.286;21.124;2024-03-23T10:33:55;11.87;;;10.47;;
16699;SDS011;8466;52.286;21.124;2024-03-23T10:36:23;12.90;;;11.23;;
16699;SDS011;8466;52.286;21.124;2024-03-23T10:38:55;13.50;;;11.17;;
16699;SDS011;8466;52.286;21.124;2024-03-23T10:41:24;13.10;;;11.30;;
16699;SDS011;8466;52.286;21.124;2024-03-23T10:43:53;16.00;;;11.27;;
16699;SDS011;8466;52.286;21.124;2024-03-23T10:46:24;11.85;;;10.75;;
16699;SDS011;8466;52.286;21.124;2024-03-23T10:48:51;11.68;;;10.07;;
16699;SDS011;8466;52.286;21.124;2024-03-23T10:51:19;11.37;;;10.17;;
16699;SDS011;8466;52.286;21.124;2024-03-23T10:53:45;14.00;;;10.63;;
16699;SDS011;8466;52.286;21.124;2024-03-23T10:56:15;11.45;;;10.23;;
16699;SDS011;8466;52.286;21.124;2024-03-23T10:58:44;11.18;;;10.05;;
16699;SDS011;8466;52.286;21.124;2024-03-23T11:01:14;12.97;;;10.57;;
16699;SDS011;8466;52.286;21.124;2024-03-23T11:03:44;10.65;;;9.50;;
16699;SDS011;8466;52.286;21.124;2024-03-23T11:09:00;11.90;;;10.63;;
16699;SDS011;8466;52.286;21.124;2024-03-23T11:11:29;12.33;;;9.47;;
16699;SDS011;8466;52.286;21.124;2024-03-23T11:13:57;12.40;;;10.73;;
16699;SDS011;8466;52.286;21.124;2024-03-23T11:16:26;12.03;;;9.40;;
16699;SDS011;8466;52.286;21.124;2024-03-23T11:18:58;10.83;;;9.67;;
16699;SDS011;8466;52.286;21.124;2024-03-23T11:22:01;10.27;;;8.83;;
16699;SDS011;8466;52.286;21.124;2024-03-23T11:24:28;10.10;;;8.50;;
16699;SDS011;8466;52.286;21.124;2024-03-23T11:27:06;10.37;;;8.63;;
16699;SDS011;8466;52.286;21.124;2024-03-23T11:32:49;9.47;;;8.47;;
16699;SDS011;8466;52.286;21.124;2024-03-23T11:35:29;11.27;;;9.07;;
16699;SDS011;8466;52.286;21.124;2024-03-23T11:38:04;9.63;;;8.05;;
16699;SDS011;8466;52.286;21.124;2024-03-23T11:40:34;9.70;;;8.35;;
16699;SDS011;8466;52.286;21.124;2024-03-23T11:43:05;8.87;;;7.97;;
16699;SDS011;8466;52.286;21.124;2024-03-23T11:45:36;10.05;;;8.35;;
16699;SDS011;8466;52.286;21.124;2024-03-23T11:48:06;10.17;;;8.57;;
16699;SDS011;8466;52.286;21.124;2024-03-23T11:50:34;10.55;;;7.88;;
16699;SDS011;8466;52.286;21.124;2024-03-23T11:53:07;8.40;;;7.55;;
16699;SDS011;8466;52.286;21.124;2024-03-23T11:55:45;8.55;;;7.75;;
16699;SDS011;8466;52.286;21.124;2024-03-23T11:58:16;7.23;;;6.53;;
16699;SDS011;8466;52.286;21.124;2024-03-23T12:00:48;8.02;;;6.63;;
16699;SDS011;8466;52.286;21.124;2024-03-23T12:03:17;9.40;;;6.97;;
16699;SDS011;8466;52.286;21.124;2024-03-23T12:05:50;7.88;;;7.03;;
16699;SDS011;8466;52.286;21.124;2024-03-23T12:08:20;6.72;;;6.13;;
16699;SDS011;8466;52.286;21.124;2024-03-23T12:10:49;7.88;;;7.07;;
16699;SDS011;8466;52.286;21.124;2024-03-23T12:13:19;7.80;;;7.07;;
16699;SDS011;8466;52.286;21.124;2024-03-23T12:15:47;7.60;;;6.80;;
16699;SDS011;8466;52.286;21.124;2024-03-23T12:18:16;7.22;;;6.53;;
16699;SDS011;8466;52.286;21.124;2024-03-23T12:20:43;7.65;;;6.95;;
16699;SDS011;8466;52.286;21.124;2024-03-23T12:23:11;7.25;;;6.25;;
16699;SDS011;8466;52.286;21.124;2024-03-23T12:25:38;8.32;;;6.95;;
16699;SDS011;8466;52.286;21.124;2024-03-23T12:28:07;6.63;;;6.03;;
16699;SDS011;8466;52.286;21.124;2024-03-23T12:30:36;7.10;;;6.40;;
16699;SDS011;8466;52.286;21.124;2024-03-23T12:33:06;7.68;;;6.75;;
16699;SDS011;8466;52.286;21.124;2024-03-23T12:35:33;7.10;;;6.15;;
16699;SDS011;8466;52.286;21.124;2024-03-23T12:38:03;6.88;;;6.18;;
16699;SDS011;8466;52.286;21.124;2024-03-23T12:40:30;6.72;;;5.97;;
16699;SDS011;8466;52.286;21.124;2024-03-23T12:42:59;7.32;;;6.30;;
16699;SDS011;8466;52.286;21.124;2024-03-23T12:45:26;7.50;;;6.80;;
16699;SDS011;8466;52.286;21.124;2024-03-23T12:47:55;6.20;;;5.60;;
16699;SDS011;8466;52.286;21.124;2024-03-23T12:50:21;8.07;;;7.28;;
16699;SDS011;8466;52.286;21.124;2024-03-23T12:52:49;8.50;;;7.70;;
16699;SDS011;8466;52.286;21.124;2024-03-23T12:55:16;7.60;;;6.82;;
16699;SDS011;8466;52.286;21.124;2024-03-23T12:57:46;7.68;;;6.97;;
16699;SDS011;8466;52.286;21.124;2024-03-23T13:00:14;6.72;;;6.13;;
16699;SDS011;8466;52.286;21.124;2024-03-23T13:02:42;10.85;;;8.52;;
16699;SDS011;8466;52.286;21.124;2024-03-23T13:05:13;9.38;;;7.35;;
16699;SDS011;8466;52.286;21.124;2024-03-23T13:07:39;8.15;;;7.35;;
16699;SDS011;8466;52.286;21.124;2024-03-23T13:10:07;8.10;;;6.63;;
16699;SDS011;8466;52.286;21.124;2024-03-23T13:12:34;7.05;;;6.38;;
16699;SDS011;8466;52.286;21.124;2024-03-23T13:15:02;7.35;;;6.55;;
16699;SDS011;8466;52.286;21.124;2024-03-23T13:17:30;7.88;;;6.20;;
16699;SDS011;8466;52.286;21.124;2024-03-23T13:19:58;7.07;;;6.07;;
16699;SDS011;8466;52.286;21.124;2024-03-23T13:22:26;7.40;;;6.50;;
16699;SDS011;8466;52.286;21.124;2024-03-23T13:24:54;7.93;;;7.22;;
16699;SDS011;8466;52.286;21.124;2024-03-23T13:27:20;8.23;;;7.43;;
16699;SDS011;8466;52.286;21.124;2024-03-23T13:29:48;9.15;;;7.25;;
16699;SDS011;8466;52.286;21.124;2024-03-23T13:32:16;6.90;;;6.25;;
16699;SDS011;8466;52.286;21.124;2024-03-23T13:34:43;7.63;;;6.82;;
16699;SDS011;8466;52.286;21.124;2024-03-23T13:37:10;7.85;;;7.10;;
16699;SDS011;8466;52.286;21.124;2024-03-23T13:39:40;7.95;;;7.15;;
16699;SDS011;8466;52.286;21.124;2024-03-23T13:42:07;7.07;;;6.37;;
16699;SDS011;8466;52.286;21.124;2024-03-23T13:44:35;9.32;;;6.55;;
16699;SDS011;8466;52.286;21.124;2024-03-23T13:47:02;7.32;;;6.63;;
16699;SDS011;8466;52.286;21.124;2024-03-23T13:49:30;7.18;;;6.47;;
16699;SDS011;8466;52.286;21.124;2024-03-23T13:51:58;6.50;;;5.88;;
16699;SDS011;8466;52.286;21.124;2024-03-23T13:54:26;7.73;;;6.23;;
16699;SDS011;8466;52.286;21.124;2024-03-23T13:56:55;7.17;;;6.30;;
16699;SDS011;8466;52.286;21.124;2024-03-23T13:59:23;6.75;;;6.15;;
16699;SDS011;8466;52.286;21.124;2024-03-23T14:01:50;9.50;;;7.13;;
16699;SDS011;8466;52.286;21.124;2024-03-23T14:04:18;7.22;;;6.63;;
16699;SDS011;8466;52.286;21.124;2024-03-23T14:06:45;6.90;;;6.30;;
16699;SDS011;8466;52.286;21.124;2024-03-23T14:09:13;8.93;;;6.75;;
16699;SDS011;8466;52.286;21.124;2024-03-23T14:11:41;7.85;;;7.05;;
16699;SDS011;8466;52.286;21.124;2024-03-23T14:14:10;7.55;;;6.75;;
16699;SDS011;8466;52.286;21.124;2024-03-23T14:16:37;11.77;;;7.22;;
16699;SDS011;8466;52.286;21.124;2024-03-23T14:19:05;9.80;;;8.80;;
16699;SDS011;8466;52.286;21.124;2024-03-23T14:21:31;9.03;;;8.10;;
16699;SDS011;8466;52.286;21.124;2024-03-23T14:24:00;9.40;;;8.40;;
16699;SDS011;8466;52.286;21.124;2024-03-23T14:26:26;8.97;;;7.73;;
16699;SDS011;8466;52.286;21.124;2024-03-23T14:28:54;8.43;;;7.60;;
16699;SDS011;8466;52.286;21.124;2024-03-23T14:31:22;8.23;;;7.43;;
16699;SDS011;8466;52.286;21.124;2024-03-23T14:33:51;8.57;;;7.60;;
16699;SDS011;8466;52.286;21.124;2024-03-23T14:36:21;10.23;;;7.73;;
16699;SDS011;8466;52.286;21.124;2024-03-23T14:38:50;8.23;;;7.40;;
16699;SDS011;8466;52.286;21.124;2024-03-23T14:41:18;7.77;;;6.97;;
16699;SDS011;8466;52.286;21.124;2024-03-23T14:43:45;6.53;;;5.93;;
16699;SDS011;8466;52.286;21.124;2024-03-23T14:46:14;8.10;;;7.40;;
16699;SDS011;8466;52.286;21.124;2024-03-23T14:48:44;8.75;;;7.95;;
16699;SDS011;8466;52.286;21.124;2024-03-23T14:51:11;8.80;;;8.00;;
16699;SDS011;8466;52.286;21.124;2024-03-23T14:53:40;9.07;;;7.70;;
16699;SDS011;8466;52.286;21.124;2024-03-23T14:56:10;8.00;;;7.30;;
16699;SDS011;8466;52.286;21.124;2024-03-23T14:58:40;8.90;;;7.23;;
16699;SDS011;8466;52.286;21.124;2024-03-23T15:01:08;8.27;;;7.43;;
16699;SDS011;8466;52.286;21.124;2024-03-23T15:03:36;8.23;;;7.37;;
16699;SDS011;8466;52.286;21.124;2024-03-23T15:06:08;7.80;;;7.00;;
16699;SDS011;8466;52.286;21.124;2024-03-23T15:08:38;8.43;;;7.27;;
16699;SDS011;8466;52.286;21.124;2024-03-23T15:11:06;8.57;;;7.77;;
16699;SDS011;8466;52.286;21.124;2024-03-23T15:13:33;9.17;;;8.07;;
16699;SDS011;8466;52.286;21.124;2024-03-23T15:16:02;10.20;;;8.87;;
16699;SDS011;8466;52.286;21.124;2024-03-23T15:18:30;12.53;;;11.33;;
16699;SDS011;8466;52.286;21.124;2024-03-23T15:20:58;11.87;;;9.83;;
16699;SDS011;8466;52.286;21.124;2024-03-23T15:23:31;18.57;;;14.37;;
16699;SDS011;8466;52.286;21.124;2024-03-23T15:26:00;19.97;;;17.23;;
16699;SDS011;8466;52.286;21.124;2024-03-23T15:28:29;21.33;;;17.90;;
16699;SDS011;8466;52.286;21.124;2024-03-23T15:31:03;18.60;;;16.23;;
16699;SDS011;8466;52.286;21.124;2024-03-23T15:33:31;17.73;;;14.57;;
16699;SDS011;8466;52.286;21.124;2024-03-23T15:35:58;17.03;;;14.97;;